sensor_id;sensor_type;location;lat;lon;timestamp;P1;durP1;ratioP1;P2;durP2;ratioP2
60054;SDS011;45930;53.514;55.904;2022-08-18T00:00:04;8.15;;;5.60;;
60054;SDS011;45930;53.514;55.904;2022-08-18T00:01:10;10.35;;;5.78;;
60054;SDS011;45930;53.514;55.904;2022-08-18T00:02:14;21.38;;;6.97;;
60054;SDS011;45930;53.514;55.904;2022-08-18T00:03:18;8.88;;;5.35;;
60054;SDS011;45930;53.514;55.904;2022-08-18T00:04:19;8.73;;;5.40;;
60054;SDS011;45930;53.514;55.904;2022-08-18T00:05:20;5.70;;;4.78;;
60054;SDS011;45930;53.514;55.904;2022-08-18T00:06:21;9.18;;;6.13;;
60054;SDS011;45930;53.514;55.904;2022-08-18T00:07:23;5.80;;;4.53;;
60054;SDS011;45930;53.514;55.904;2022-08-18T00:08:28;9.23;;;5.35;;
60054;SDS011;45930;53.514;55.904;2022-08-18T00:09:29;29.33;;;6.90;;
60054;SDS011;45930;53.514;55.904;2022-08-18T00:10:30;9.25;;;5.95;;
60054;SDS011;45930;53.514;55.904;2022-08-18T00:11:33;8.68;;;5.30;;
60054;SDS011;45930;53.514;55.904;2022-08-18T00:12:37;7.85;;;5.47;;
60054;SDS011;45930;53.514;55.904;2022-08-18T00:13:41;8.68;;;5.28;;
60054;SDS011;45930;53.514;55.904;2022-08-18T00:14:41;6.65;;;4.82;;
60054;SDS011;45930;53.514;55.904;2022-08-18T00:15:43;8.43;;;5.85;;
60054;SDS011;45930;53.514;55.904;2022-08-18T00:16:44;7.25;;;5.45;;
60054;SDS011;45930;53.514;55.904;2022-08-18T00:17:45;6.10;;;5.10;;
60054;SDS011;45930;53.514;55.904;2022-08-18T00:18:46;7.78;;;5.50;;
60054;SDS011;45930;53.514;55.904;2022-08-18T00:19:47;5.95;;;5.07;;
60054;SDS011;45930;53.514;55.904;2022-08-18T00:20:48;6.78;;;5.20;;
60054;SDS011;45930;53.514;55.904;2022-08-18T00:21:49;7.38;;;5.68;;
60054;SDS011;45930;53.514;55.904;2022-08-18T00:22:50;8.73;;;5.80;;
60054;SDS011;45930;53.514;55.904;2022-08-18T00:23:52;6.93;;;5.07;;
60054;SDS011;45930;53.514;55.904;2022-08-18T00:24:54;8.23;;;5.70;;
60054;SDS011;45930;53.514;55.904;2022-08-18T00:25:56;8.07;;;5.57;;
60054;SDS011;45930;53.514;55.904;2022-08-18T00:26:58;8.27;;;5.82;;
60054;SDS011;45930;53.514;55.904;2022-08-18T00:27:59;10.98;;;6.25;;
60054;SDS011;45930;53.514;55.904;2022-08-18T00:29:00;8.30;;;6.85;;
60054;SDS011;45930;53.514;55.904;2022-08-18T00:30:04;15.05;;;7.15;;
60054;SDS011;45930;53.514;55.904;2022-08-18T00:31:07;15.88;;;7.57;;
60054;SDS011;45930;53.514;55.904;2022-08-18T00:32:11;14.07;;;7.65;;
60054;SDS011;45930;53.514;55.904;2022-08-18T00:33:14;14.95;;;8.27;;
60054;SDS011;45930;53.514;55.904;2022-08-18T00:34:14;19.58;;;8.95;;
60054;SDS011;45930;53.514;55.904;2022-08-18T00:35:18;18.67;;;8.77;;
60054;SDS011;45930;53.514;55.904;2022-08-18T00:36:29;12.27;;;8.02;;
60054;SDS011;45930;53.514;55.904;2022-08-18T00:37:31;13.70;;;8.57;;
60054;SDS011;45930;53.514;55.904;2022-08-18T00:38:32;16.58;;;9.15;;
60054;SDS011;45930;53.514;55.904;2022-08-18T00:39:33;12.88;;;7.45;;
60054;SDS011;45930;53.514;55.904;2022-08-18T00:40:39;21.60;;;8.70;;
60054;SDS011;45930;53.514;55.904;2022-08-18T00:46:28;71.28;;;13.57;;
60054;SDS011;45930;53.514;55.904;2022-08-18T00:47:32;93.15;;;13.27;;
60054;SDS011;45930;53.514;55.904;2022-08-18T00:48:33;23.92;;;8.60;;
60054;SDS011;45930;53.514;55.904;2022-08-18T00:49:35;26.73;;;10.25;;
60054;SDS011;45930;53.514;55.904;2022-08-18T00:50:41;17.60;;;9.13;;
60054;SDS011;45930;53.514;55.904;2022-08-18T00:51:51;16.35;;;9.15;;
60054;SDS011;45930;53.514;55.904;2022-08-18T00:52:53;18.83;;;9.77;;
60054;SDS011;45930;53.514;55.904;2022-08-18T00:55:20;16.50;;;9.38;;
60054;SDS011;45930;53.514;55.904;2022-08-18T00:56:25;15.48;;;9.10;;
60054;SDS011;45930;53.514;55.904;2022-08-18T00:57:30;20.25;;;10.52;;
60054;SDS011;45930;53.514;55.904;2022-08-18T00:58:33;18.70;;;10.27;;
60054;SDS011;45930;53.514;55.904;2022-08-18T00:59:41;23.85;;;10.77;;
60054;SDS011;45930;53.514;55.904;2022-08-18T01:00:45;21.10;;;10.63;;
60054;SDS011;45930;53.514;55.904;2022-08-18T01:01:48;22.23;;;11.30;;
60054;SDS011;45930;53.514;55.904;2022-08-18T01:02:52;17.55;;;10.90;;
60054;SDS011;45930;53.514;55.904;2022-08-18T01:03:59;19.05;;;10.73;;
60054;SDS011;45930;53.514;55.904;2022-08-18T01:05:08;21.55;;;10.77;;
60054;SDS011;45930;53.514;55.904;2022-08-18T01:06:15;17.42;;;10.60;;
60054;SDS011;45930;53.514;55.904;2022-08-18T01:07:24;22.88;;;11.25;;
60054;SDS011;45930;53.514;55.904;2022-08-18T01:08:29;20.33;;;10.98;;
60054;SDS011;45930;53.514;55.904;2022-08-18T01:09:32;17.58;;;9.82;;
60054;SDS011;45930;53.514;55.904;2022-08-18T01:10:35;19.00;;;9.57;;
60054;SDS011;45930;53.514;55.904;2022-08-18T01:11:38;21.35;;;9.48;;
60054;SDS011;45930;53.514;55.904;2022-08-18T01:12:39;13.80;;;8.18;;
60054;SDS011;45930;53.514;55.904;2022-08-18T01:13:40;17.70;;;9.25;;
60054;SDS011;45930;53.514;55.904;2022-08-18T01:14:42;16.50;;;9.35;;
60054;SDS011;45930;53.514;55.904;2022-08-18T01:15:44;17.90;;;8.95;;
60054;SDS011;45930;53.514;55.904;2022-08-18T01:16:45;19.33;;;9.57;;
60054;SDS011;45930;53.514;55.904;2022-08-18T01:18:08;19.33;;;9.30;;
60054;SDS011;45930;53.514;55.904;2022-08-18T01:19:30;21.60;;;11.68;;
60054;SDS011;45930;53.514;55.904;2022-08-18T01:23:47;14.23;;;9.15;;
60054;SDS011;45930;53.514;55.904;2022-08-18T01:24:50;16.40;;;10.50;;
60054;SDS011;45930;53.514;55.904;2022-08-18T01:26:10;13.82;;;10.38;;
60054;SDS011;45930;53.514;55.904;2022-08-18T01:27:13;19.25;;;10.77;;
60054;SDS011;45930;53.514;55.904;2022-08-18T01:28:17;16.27;;;9.68;;
60054;SDS011;45930;53.514;55.904;2022-08-18T01:29:20;13.98;;;8.98;;
60054;SDS011;45930;53.514;55.904;2022-08-18T01:30:20;16.40;;;9.10;;
60054;SDS011;45930;53.514;55.904;2022-08-18T01:31:47;14.38;;;8.02;;
60054;SDS011;45930;53.514;55.904;2022-08-18T01:32:55;15.10;;;8.85;;
60054;SDS011;45930;53.514;55.904;2022-08-18T01:33:58;15.35;;;8.30;;
60054;SDS011;45930;53.514;55.904;2022-08-18T01:35:00;15.20;;;9.52;;
60054;SDS011;45930;53.514;55.904;2022-08-18T01:36:11;17.70;;;9.55;;
60054;SDS011;45930;53.514;55.904;2022-08-18T01:37:16;16.05;;;9.13;;
60054;SDS011;45930;53.514;55.904;2022-08-18T01:38:19;14.55;;;8.68;;
60054;SDS011;45930;53.514;55.904;2022-08-18T01:39:22;15.70;;;8.13;;
60054;SDS011;45930;53.514;55.904;2022-08-18T01:40:23;20.02;;;9.85;;
60054;SDS011;45930;53.514;55.904;2022-08-18T01:41:24;15.63;;;9.65;;
60054;SDS011;45930;53.514;55.904;2022-08-18T01:42:25;20.42;;;9.40;;
60054;SDS011;45930;53.514;55.904;2022-08-18T01:43:26;15.57;;;8.95;;
60054;SDS011;45930;53.514;55.904;2022-08-18T01:44:27;19.73;;;9.05;;
60054;SDS011;45930;53.514;55.904;2022-08-18T01:45:27;15.00;;;8.23;;
60054;SDS011;45930;53.514;55.904;2022-08-18T01:46:29;19.92;;;8.75;;
60054;SDS011;45930;53.514;55.904;2022-08-18T01:47:33;13.07;;;8.57;;
60054;SDS011;45930;53.514;55.904;2022-08-18T01:48:36;16.30;;;7.82;;
60054;SDS011;45930;53.514;55.904;2022-08-18T01:49:38;12.18;;;8.98;;
60054;SDS011;45930;53.514;55.904;2022-08-18T01:50:42;15.63;;;8.85;;
60054;SDS011;45930;53.514;55.904;2022-08-18T01:51:44;17.67;;;8.73;;
60054;SDS011;45930;53.514;55.904;2022-08-18T01:52:45;16.88;;;8.48;;
60054;SDS011;45930;53.514;55.904;2022-08-18T01:53:46;15.00;;;7.80;;
60054;SDS011;45930;53.514;55.904;2022-08-18T01:54:48;14.50;;;8.18;;
60054;SDS011;45930;53.514;55.904;2022-08-18T01:55:49;15.00;;;8.55;;
60054;SDS011;45930;53.514;55.904;2022-08-18T01:56:50;11.07;;;8.05;;
60054;SDS011;45930;53.514;55.904;2022-08-18T01:57:53;17.63;;;8.05;;
60054;SDS011;45930;53.514;55.904;2022-08-18T01:58:54;13.13;;;8.73;;
60054;SDS011;45930;53.514;55.904;2022-08-18T01:59:55;15.60;;;8.57;;
60054;SDS011;45930;53.514;55.904;2022-08-18T02:01:00;14.70;;;9.32;;
60054;SDS011;45930;53.514;55.904;2022-08-18T02:02:02;15.38;;;9.43;;
60054;SDS011;45930;53.514;55.904;2022-08-18T02:03:03;18.95;;;10.32;;
60054;SDS011;45930;53.514;55.904;2022-08-18T02:04:07;20.42;;;10.75;;
60054;SDS011;45930;53.514;55.904;2022-08-18T02:05:13;18.02;;;10.25;;
60054;SDS011;45930;53.514;55.904;2022-08-18T02:06:19;20.35;;;11.15;;
60054;SDS011;45930;53.514;55.904;2022-08-18T02:07:20;32.10;;;11.93;;
60054;SDS011;45930;53.514;55.904;2022-08-18T02:08:21;33.53;;;11.38;;
60054;SDS011;45930;53.514;55.904;2022-08-18T02:09:22;22.45;;;11.73;;
60054;SDS011;45930;53.514;55.904;2022-08-18T02:10:23;21.35;;;10.98;;
60054;SDS011;45930;53.514;55.904;2022-08-18T02:11:24;22.08;;;11.63;;
60054;SDS011;45930;53.514;55.904;2022-08-18T02:12:25;22.15;;;10.90;;
60054;SDS011;45930;53.514;55.904;2022-08-18T02:13:26;21.95;;;11.55;;
60054;SDS011;45930;53.514;55.904;2022-08-18T02:14:27;29.85;;;12.20;;
60054;SDS011;45930;53.514;55.904;2022-08-18T02:15:28;21.08;;;10.98;;
60054;SDS011;45930;53.514;55.904;2022-08-18T02:16:28;19.15;;;12.07;;
60054;SDS011;45930;53.514;55.904;2022-08-18T02:17:49;29.88;;;12.93;;
60054;SDS011;45930;53.514;55.904;2022-08-18T02:18:50;30.80;;;13.30;;
60054;SDS011;45930;53.514;55.904;2022-08-18T02:19:51;21.95;;;12.55;;
60054;SDS011;45930;53.514;55.904;2022-08-18T02:20:53;23.40;;;12.45;;
60054;SDS011;45930;53.514;55.904;2022-08-18T02:21:54;25.48;;;12.68;;
60054;SDS011;45930;53.514;55.904;2022-08-18T02:22:55;35.40;;;13.50;;
60054;SDS011;45930;53.514;55.904;2022-08-18T02:23:57;28.98;;;13.35;;
60054;SDS011;45930;53.514;55.904;2022-08-18T02:24:58;23.77;;;12.82;;
60054;SDS011;45930;53.514;55.904;2022-08-18T02:26:02;33.42;;;14.27;;
60054;SDS011;45930;53.514;55.904;2022-08-18T02:27:07;26.05;;;14.70;;
60054;SDS011;45930;53.514;55.904;2022-08-18T02:28:09;29.73;;;13.02;;
60054;SDS011;45930;53.514;55.904;2022-08-18T02:29:10;29.92;;;14.20;;
60054;SDS011;45930;53.514;55.904;2022-08-18T02:30:13;30.75;;;14.18;;
60054;SDS011;45930;53.514;55.904;2022-08-18T02:31:16;27.63;;;13.98;;
60054;SDS011;45930;53.514;55.904;2022-08-18T02:32:19;25.88;;;11.35;;
60054;SDS011;45930;53.514;55.904;2022-08-18T02:33:20;26.15;;;12.90;;
60054;SDS011;45930;53.514;55.904;2022-08-18T02:34:21;30.60;;;11.48;;
60054;SDS011;45930;53.514;55.904;2022-08-18T02:35:22;23.17;;;12.85;;
60054;SDS011;45930;53.514;55.904;2022-08-18T02:36:23;26.65;;;13.20;;
60054;SDS011;45930;53.514;55.904;2022-08-18T02:37:24;26.23;;;13.98;;
60054;SDS011;45930;53.514;55.904;2022-08-18T02:38:25;28.05;;;11.75;;
60054;SDS011;45930;53.514;55.904;2022-08-18T02:39:26;21.58;;;11.48;;
60054;SDS011;45930;53.514;55.904;2022-08-18T02:40:27;31.23;;;13.27;;
60054;SDS011;45930;53.514;55.904;2022-08-18T02:41:28;28.00;;;12.93;;
60054;SDS011;45930;53.514;55.904;2022-08-18T02:42:30;27.67;;;12.75;;
60054;SDS011;45930;53.514;55.904;2022-08-18T02:43:31;23.98;;;12.80;;
60054;SDS011;45930;53.514;55.904;2022-08-18T02:44:32;25.58;;;12.70;;
60054;SDS011;45930;53.514;55.904;2022-08-18T02:45:35;27.65;;;11.88;;
60054;SDS011;45930;53.514;55.904;2022-08-18T02:46:37;22.00;;;12.40;;
60054;SDS011;45930;53.514;55.904;2022-08-18T02:47:37;27.63;;;11.90;;
60054;SDS011;45930;53.514;55.904;2022-08-18T02:48:39;27.15;;;12.50;;
60054;SDS011;45930;53.514;55.904;2022-08-18T02:49:40;27.70;;;11.82;;
60054;SDS011;45930;53.514;55.904;2022-08-18T02:50:40;25.55;;;11.45;;
60054;SDS011;45930;53.514;55.904;2022-08-18T02:51:45;27.40;;;11.23;;
60054;SDS011;45930;53.514;55.904;2022-08-18T02:52:46;29.92;;;13.23;;
60054;SDS011;45930;53.514;55.904;2022-08-18T02:53:47;26.25;;;12.02;;
60054;SDS011;45930;53.514;55.904;2022-08-18T02:54:48;28.02;;;12.73;;
60054;SDS011;45930;53.514;55.904;2022-08-18T02:55:49;26.88;;;11.70;;
60054;SDS011;45930;53.514;55.904;2022-08-18T02:56:50;22.80;;;11.55;;
60054;SDS011;45930;53.514;55.904;2022-08-18T02:57:52;24.27;;;11.80;;
60054;SDS011;45930;53.514;55.904;2022-08-18T02:58:54;26.15;;;12.40;;
60054;SDS011;45930;53.514;55.904;2022-08-18T03:00:00;28.55;;;12.07;;
60054;SDS011;45930;53.514;55.904;2022-08-18T03:01:00;23.15;;;11.52;;
60054;SDS011;45930;53.514;55.904;2022-08-18T03:02:01;23.30;;;11.95;;
60054;SDS011;45930;53.514;55.904;2022-08-18T03:03:02;32.17;;;13.75;;
60054;SDS011;45930;53.514;55.904;2022-08-18T03:04:04;26.88;;;11.65;;
60054;SDS011;45930;53.514;55.904;2022-08-18T03:05:07;25.48;;;11.90;;
60054;SDS011;45930;53.514;55.904;2022-08-18T03:06:08;25.02;;;12.02;;
60054;SDS011;45930;53.514;55.904;2022-08-18T03:07:08;27.13;;;12.30;;
60054;SDS011;45930;53.514;55.904;2022-08-18T03:08:09;28.38;;;13.43;;
60054;SDS011;45930;53.514;55.904;2022-08-18T03:09:11;24.58;;;12.10;;
60054;SDS011;45930;53.514;55.904;2022-08-18T03:10:14;26.92;;;11.35;;
60054;SDS011;45930;53.514;55.904;2022-08-18T03:11:15;24.65;;;11.00;;
60054;SDS011;45930;53.514;55.904;2022-08-18T03:12:17;25.25;;;12.52;;
60054;SDS011;45930;53.514;55.904;2022-08-18T03:13:18;28.67;;;12.80;;
60054;SDS011;45930;53.514;55.904;2022-08-18T03:14:19;23.65;;;11.68;;
60054;SDS011;45930;53.514;55.904;2022-08-18T03:15:21;27.25;;;12.20;;
60054;SDS011;45930;53.514;55.904;2022-08-18T03:16:22;23.83;;;12.40;;
60054;SDS011;45930;53.514;55.904;2022-08-18T03:17:26;24.58;;;11.95;;
60054;SDS011;45930;53.514;55.904;2022-08-18T03:18:27;24.55;;;11.40;;
60054;SDS011;45930;53.514;55.904;2022-08-18T03:19:28;26.05;;;11.38;;
60054;SDS011;45930;53.514;55.904;2022-08-18T03:20:29;25.65;;;11.60;;
60054;SDS011;45930;53.514;55.904;2022-08-18T03:21:31;23.10;;;10.80;;
60054;SDS011;45930;53.514;55.904;2022-08-18T03:22:36;30.42;;;12.18;;
60054;SDS011;45930;53.514;55.904;2022-08-18T03:23:37;29.98;;;11.98;;
60054;SDS011;45930;53.514;55.904;2022-08-18T03:24:41;23.67;;;11.38;;
60054;SDS011;45930;53.514;55.904;2022-08-18T03:25:47;29.55;;;12.25;;
60054;SDS011;45930;53.514;55.904;2022-08-18T03:26:49;28.08;;;11.02;;
60054;SDS011;45930;53.514;55.904;2022-08-18T03:27:50;25.98;;;11.73;;
60054;SDS011;45930;53.514;55.904;2022-08-18T03:28:52;21.20;;;11.63;;
60054;SDS011;45930;53.514;55.904;2022-08-18T03:29:54;31.20;;;12.85;;
60054;SDS011;45930;53.514;55.904;2022-08-18T03:30:55;29.92;;;12.27;;
60054;SDS011;45930;53.514;55.904;2022-08-18T03:31:56;29.13;;;13.05;;
60054;SDS011;45930;53.514;55.904;2022-08-18T03:32:56;24.27;;;13.00;;
60054;SDS011;45930;53.514;55.904;2022-08-18T03:33:58;23.92;;;11.65;;
60054;SDS011;45930;53.514;55.904;2022-08-18T03:35:00;32.80;;;12.85;;
60054;SDS011;45930;53.514;55.904;2022-08-18T03:36:05;22.25;;;11.30;;
60054;SDS011;45930;53.514;55.904;2022-08-18T03:37:07;21.88;;;11.50;;
60054;SDS011;45930;53.514;55.904;2022-08-18T03:38:09;18.25;;;11.35;;
60054;SDS011;45930;53.514;55.904;2022-08-18T03:39:10;17.25;;;10.32;;
60054;SDS011;45930;53.514;55.904;2022-08-18T03:40:12;17.35;;;9.07;;
60054;SDS011;45930;53.514;55.904;2022-08-18T03:41:14;16.63;;;10.15;;
60054;SDS011;45930;53.514;55.904;2022-08-18T03:42:19;15.75;;;9.95;;
60054;SDS011;45930;53.514;55.904;2022-08-18T03:43:20;18.38;;;9.32;;
60054;SDS011;45930;53.514;55.904;2022-08-18T03:44:21;16.92;;;10.00;;
60054;SDS011;45930;53.514;55.904;2022-08-18T03:45:22;16.80;;;9.65;;
60054;SDS011;45930;53.514;55.904;2022-08-18T03:46:26;19.80;;;10.27;;
60054;SDS011;45930;53.514;55.904;2022-08-18T03:47:27;15.63;;;9.98;;
60054;SDS011;45930;53.514;55.904;2022-08-18T03:48:28;17.67;;;9.63;;
60054;SDS011;45930;53.514;55.904;2022-08-18T03:49:30;14.15;;;9.73;;
60054;SDS011;45930;53.514;55.904;2022-08-18T03:50:32;11.15;;;8.38;;
60054;SDS011;45930;53.514;55.904;2022-08-18T03:51:33;16.23;;;8.30;;
60054;SDS011;45930;53.514;55.904;2022-08-18T03:52:34;11.55;;;8.25;;
60054;SDS011;45930;53.514;55.904;2022-08-18T03:53:37;10.70;;;7.82;;
60054;SDS011;45930;53.514;55.904;2022-08-18T03:54:38;15.07;;;8.25;;
60054;SDS011;45930;53.514;55.904;2022-08-18T03:55:42;11.65;;;7.82;;
60054;SDS011;45930;53.514;55.904;2022-08-18T03:56:43;14.32;;;7.75;;
60054;SDS011;45930;53.514;55.904;2022-08-18T03:57:45;10.77;;;7.18;;
60054;SDS011;45930;53.514;55.904;2022-08-18T03:58:55;13.45;;;7.63;;
60054;SDS011;45930;53.514;55.904;2022-08-18T03:59:58;9.55;;;6.60;;
60054;SDS011;45930;53.514;55.904;2022-08-18T04:01:00;9.60;;;7.18;;
60054;SDS011;45930;53.514;55.904;2022-08-18T04:02:03;9.80;;;7.07;;
60054;SDS011;45930;53.514;55.904;2022-08-18T04:03:04;10.75;;;6.93;;
60054;SDS011;45930;53.514;55.904;2022-08-18T04:04:06;8.57;;;6.65;;
60054;SDS011;45930;53.514;55.904;2022-08-18T04:05:12;9.38;;;6.72;;
60054;SDS011;45930;53.514;55.904;2022-08-18T04:06:14;10.13;;;7.43;;
60054;SDS011;45930;53.514;55.904;2022-08-18T04:07:19;11.70;;;7.10;;
60054;SDS011;45930;53.514;55.904;2022-08-18T04:08:20;12.93;;;7.10;;
60054;SDS011;45930;53.514;55.904;2022-08-18T04:09:21;11.10;;;6.60;;
60054;SDS011;45930;53.514;55.904;2022-08-18T04:10:23;12.02;;;6.60;;
60054;SDS011;45930;53.514;55.904;2022-08-18T04:11:24;10.25;;;6.80;;
60054;SDS011;45930;53.514;55.904;2022-08-18T04:12:27;13.63;;;6.75;;
60054;SDS011;45930;53.514;55.904;2022-08-18T04:13:29;9.85;;;7.07;;
60054;SDS011;45930;53.514;55.904;2022-08-18T04:14:35;12.20;;;6.53;;
60054;SDS011;45930;53.514;55.904;2022-08-18T04:15:36;11.77;;;7.05;;
60054;SDS011;45930;53.514;55.904;2022-08-18T04:16:37;10.23;;;6.15;;
60054;SDS011;45930;53.514;55.904;2022-08-18T04:17:39;5.78;;;5.15;;
60054;SDS011;45930;53.514;55.904;2022-08-18T04:18:39;7.30;;;5.82;;
60054;SDS011;45930;53.514;55.904;2022-08-18T04:19:40;16.67;;;6.47;;
60054;SDS011;45930;53.514;55.904;2022-08-18T04:20:42;12.57;;;6.28;;
60054;SDS011;45930;53.514;55.904;2022-08-18T04:21:43;8.75;;;5.60;;
60054;SDS011;45930;53.514;55.904;2022-08-18T04:22:47;8.40;;;5.30;;
60054;SDS011;45930;53.514;55.904;2022-08-18T04:23:48;8.57;;;4.75;;
60054;SDS011;45930;53.514;55.904;2022-08-18T04:24:49;8.48;;;5.30;;
60054;SDS011;45930;53.514;55.904;2022-08-18T04:25:57;8.43;;;5.07;;
60054;SDS011;45930;53.514;55.904;2022-08-18T04:27:00;7.18;;;5.28;;
60054;SDS011;45930;53.514;55.904;2022-08-18T04:28:03;7.47;;;5.32;;
60054;SDS011;45930;53.514;55.904;2022-08-18T04:29:04;8.88;;;5.22;;
60054;SDS011;45930;53.514;55.904;2022-08-18T04:30:07;6.68;;;4.75;;
60054;SDS011;45930;53.514;55.904;2022-08-18T04:31:10;8.77;;;4.97;;
60054;SDS011;45930;53.514;55.904;2022-08-18T04:32:13;6.53;;;4.30;;
60054;SDS011;45930;53.514;55.904;2022-08-18T04:33:14;7.78;;;4.60;;
60054;SDS011;45930;53.514;55.904;2022-08-18T04:34:18;7.75;;;4.90;;
60054;SDS011;45930;53.514;55.904;2022-08-18T04:35:21;7.85;;;5.15;;
60054;SDS011;45930;53.514;55.904;2022-08-18T04:36:23;7.05;;;4.57;;
60054;SDS011;45930;53.514;55.904;2022-08-18T04:37:25;5.68;;;4.93;;
60054;SDS011;45930;53.514;55.904;2022-08-18T04:38:26;7.95;;;5.63;;
60054;SDS011;45930;53.514;55.904;2022-08-18T04:39:27;49.67;;;8.20;;
60054;SDS011;45930;53.514;55.904;2022-08-18T04:40:28;9.63;;;5.10;;
60054;SDS011;45930;53.514;55.904;2022-08-18T04:41:29;7.80;;;4.90;;
60054;SDS011;45930;53.514;55.904;2022-08-18T04:42:30;8.05;;;4.80;;
60054;SDS011;45930;53.514;55.904;2022-08-18T04:43:32;8.82;;;5.18;;
60054;SDS011;45930;53.514;55.904;2022-08-18T04:44:33;9.45;;;5.05;;
60054;SDS011;45930;53.514;55.904;2022-08-18T04:45:36;6.50;;;4.80;;
60054;SDS011;45930;53.514;55.904;2022-08-18T04:46:40;6.97;;;4.75;;
60054;SDS011;45930;53.514;55.904;2022-08-18T04:47:43;5.43;;;4.68;;
60054;SDS011;45930;53.514;55.904;2022-08-18T04:48:44;10.68;;;5.00;;
60054;SDS011;45930;53.514;55.904;2022-08-18T04:49:45;7.72;;;5.53;;
60054;SDS011;45930;53.514;55.904;2022-08-18T04:50:46;5.55;;;4.30;;
60054;SDS011;45930;53.514;55.904;2022-08-18T04:51:48;6.40;;;5.13;;
60054;SDS011;45930;53.514;55.904;2022-08-18T04:53:09;5.93;;;4.60;;
60054;SDS011;45930;53.514;55.904;2022-08-18T04:54:28;8.00;;;4.60;;
60054;SDS011;45930;53.514;55.904;2022-08-18T04:55:29;6.93;;;4.15;;
60054;SDS011;45930;53.514;55.904;2022-08-18T04:56:31;5.55;;;4.15;;
60054;SDS011;45930;53.514;55.904;2022-08-18T04:57:36;5.53;;;3.95;;
60054;SDS011;45930;53.514;55.904;2022-08-18T04:58:37;6.03;;;3.80;;
60054;SDS011;45930;53.514;55.904;2022-08-18T04:59:38;18.00;;;8.02;;
60054;SDS011;45930;53.514;55.904;2022-08-18T05:00:40;10.52;;;6.15;;
60054;SDS011;45930;53.514;55.904;2022-08-18T05:01:44;6.70;;;5.38;;
60054;SDS011;45930;53.514;55.904;2022-08-18T05:02:46;7.03;;;5.03;;
60054;SDS011;45930;53.514;55.904;2022-08-18T05:03:49;7.80;;;4.68;;
60054;SDS011;45930;53.514;55.904;2022-08-18T05:04:50;7.70;;;5.10;;
60054;SDS011;45930;53.514;55.904;2022-08-18T05:05:55;5.95;;;4.68;;
60054;SDS011;45930;53.514;55.904;2022-08-18T05:06:57;7.72;;;5.15;;
60054;SDS011;45930;53.514;55.904;2022-08-18T05:07:58;7.30;;;4.85;;
60054;SDS011;45930;53.514;55.904;2022-08-18T05:09:00;8.93;;;5.18;;
60054;SDS011;45930;53.514;55.904;2022-08-18T05:10:03;17.83;;;6.28;;
60054;SDS011;45930;53.514;55.904;2022-08-18T05:11:04;9.02;;;5.28;;
60054;SDS011;45930;53.514;55.904;2022-08-18T05:12:06;6.88;;;4.95;;
60054;SDS011;45930;53.514;55.904;2022-08-18T05:13:09;4.68;;;4.18;;
60054;SDS011;45930;53.514;55.904;2022-08-18T05:14:10;6.07;;;4.47;;
60054;SDS011;45930;53.514;55.904;2022-08-18T05:15:11;8.50;;;5.35;;
60054;SDS011;45930;53.514;55.904;2022-08-18T05:16:12;7.15;;;4.88;;
60054;SDS011;45930;53.514;55.904;2022-08-18T05:17:14;7.28;;;5.07;;
60054;SDS011;45930;53.514;55.904;2022-08-18T05:18:15;6.25;;;4.07;;
60054;SDS011;45930;53.514;55.904;2022-08-18T05:19:19;8.02;;;5.00;;
60054;SDS011;45930;53.514;55.904;2022-08-18T05:20:21;5.50;;;4.25;;
60054;SDS011;45930;53.514;55.904;2022-08-18T05:21:23;8.48;;;4.60;;
60054;SDS011;45930;53.514;55.904;2022-08-18T05:22:24;7.28;;;5.30;;
60054;SDS011;45930;53.514;55.904;2022-08-18T05:23:25;4.55;;;4.13;;
60054;SDS011;45930;53.514;55.904;2022-08-18T05:24:29;6.13;;;4.50;;
60054;SDS011;45930;53.514;55.904;2022-08-18T05:25:32;9.60;;;5.18;;
60054;SDS011;45930;53.514;55.904;2022-08-18T05:26:33;5.28;;;4.53;;
60054;SDS011;45930;53.514;55.904;2022-08-18T05:27:37;8.70;;;5.00;;
60054;SDS011;45930;53.514;55.904;2022-08-18T05:28:40;6.43;;;3.95;;
60054;SDS011;45930;53.514;55.904;2022-08-18T05:29:43;6.78;;;4.80;;
60054;SDS011;45930;53.514;55.904;2022-08-18T05:30:44;5.65;;;4.57;;
60054;SDS011;45930;53.514;55.904;2022-08-18T05:31:45;7.45;;;5.28;;
60054;SDS011;45930;53.514;55.904;2022-08-18T05:32:46;5.95;;;5.05;;
60054;SDS011;45930;53.514;55.904;2022-08-18T05:33:47;6.45;;;4.88;;
60054;SDS011;45930;53.514;55.904;2022-08-18T05:34:49;6.72;;;5.35;;
60054;SDS011;45930;53.514;55.904;2022-08-18T05:35:53;6.97;;;5.63;;
60054;SDS011;45930;53.514;55.904;2022-08-18T05:37:09;5.45;;;4.57;;
60054;SDS011;45930;53.514;55.904;2022-08-18T05:39:34;6.72;;;5.60;;
60054;SDS011;45930;53.514;55.904;2022-08-18T05:40:43;9.13;;;5.10;;
60054;SDS011;45930;53.514;55.904;2022-08-18T05:41:48;6.03;;;4.88;;
60054;SDS011;45930;53.514;55.904;2022-08-18T05:42:52;8.13;;;6.10;;
60054;SDS011;45930;53.514;55.904;2022-08-18T05:43:56;39.13;;;8.00;;
60054;SDS011;45930;53.514;55.904;2022-08-18T05:44:57;30.65;;;7.35;;
60054;SDS011;45930;53.514;55.904;2022-08-18T05:45:59;11.60;;;5.63;;
60054;SDS011;45930;53.514;55.904;2022-08-18T05:47:05;7.18;;;5.30;;
60054;SDS011;45930;53.514;55.904;2022-08-18T05:48:10;7.75;;;5.05;;
60054;SDS011;45930;53.514;55.904;2022-08-18T05:49:19;6.55;;;5.28;;
60054;SDS011;45930;53.514;55.904;2022-08-18T05:50:21;6.82;;;5.63;;
60054;SDS011;45930;53.514;55.904;2022-08-18T05:51:24;6.57;;;5.30;;
60054;SDS011;45930;53.514;55.904;2022-08-18T05:52:32;7.18;;;5.00;;
60054;SDS011;45930;53.514;55.904;2022-08-18T05:53:35;9.90;;;5.38;;
60054;SDS011;45930;53.514;55.904;2022-08-18T05:54:59;5.90;;;5.20;;
60054;SDS011;45930;53.514;55.904;2022-08-18T05:56:23;6.90;;;5.45;;
60054;SDS011;45930;53.514;55.904;2022-08-18T05:57:47;8.80;;;5.28;;
60054;SDS011;45930;53.514;55.904;2022-08-18T05:58:52;8.88;;;5.70;;
60054;SDS011;45930;53.514;55.904;2022-08-18T05:59:54;6.18;;;5.50;;
60054;SDS011;45930;53.514;55.904;2022-08-18T06:00:58;5.22;;;4.72;;
60054;SDS011;45930;53.514;55.904;2022-08-18T06:02:07;9.02;;;6.43;;
60054;SDS011;45930;53.514;55.904;2022-08-18T06:03:17;9.02;;;5.55;;
60054;SDS011;45930;53.514;55.904;2022-08-18T06:04:32;8.77;;;6.38;;
60054;SDS011;45930;53.514;55.904;2022-08-18T06:06:01;7.53;;;5.80;;
60054;SDS011;45930;53.514;55.904;2022-08-18T06:07:06;9.05;;;5.47;;
60054;SDS011;45930;53.514;55.904;2022-08-18T06:08:12;7.15;;;5.03;;
60054;SDS011;45930;53.514;55.904;2022-08-18T06:09:23;6.38;;;5.22;;
60054;SDS011;45930;53.514;55.904;2022-08-18T06:10:28;6.55;;;5.90;;
60054;SDS011;45930;53.514;55.904;2022-08-18T06:11:31;9.88;;;6.25;;
60054;SDS011;45930;53.514;55.904;2022-08-18T06:12:33;10.50;;;6.22;;
60054;SDS011;45930;53.514;55.904;2022-08-18T06:13:39;7.10;;;5.70;;
60054;SDS011;45930;53.514;55.904;2022-08-18T06:14:42;6.72;;;6.13;;
60054;SDS011;45930;53.514;55.904;2022-08-18T06:18:38;6.70;;;5.55;;
60054;SDS011;45930;53.514;55.904;2022-08-18T06:20:02;9.00;;;6.40;;
60054;SDS011;45930;53.514;55.904;2022-08-18T06:25:20;9.18;;;4.88;;
60054;SDS011;45930;53.514;55.904;2022-08-18T06:29:01;12.27;;;6.70;;
60054;SDS011;45930;53.514;55.904;2022-08-18T06:30:09;7.13;;;6.43;;
60054;SDS011;45930;53.514;55.904;2022-08-18T06:31:40;6.75;;;6.03;;